createdAt,value
2023-05-19T00:00:57.780Z,958.4200
2023-05-19T00:02:00.548Z,958.4147
2023-05-19T00:03:03.431Z,958.4157
2023-05-19T00:04:06.253Z,958.4186
2023-05-19T00:05:08.311Z,958.4238
2023-05-19T00:06:10.403Z,958.4281
2023-05-19T00:07:13.032Z,958.4300
2023-05-19T00:08:15.976Z,958.4247
2023-05-19T00:20:40.034Z,958.3286
2023-05-19T00:21:42.182Z,958.3267
2023-05-19T00:22:44.266Z,958.3110
2023-05-19T00:24:48.281Z,958.2843
2023-05-19T00:25:50.353Z,958.2657
2023-05-19T00:26:52.473Z,958.2562
2023-05-19T00:27:54.537Z,958.2534
2023-05-19T00:28:56.621Z,958.2471
2023-05-19T00:29:59.513Z,958.2510
2023-05-19T00:31:02.804Z,958.2419
2023-05-19T00:34:06.631Z,958.2410
2023-05-19T00:41:19.520Z,958.1833
2023-05-19T00:42:22.229Z,958.1747
2023-05-19T00:43:24.860Z,958.1600
2023-05-19T00:44:28.157Z,958.1453
2023-05-19T00:47:42.720Z,958.1257
2023-05-19T00:55:51.497Z,958.0671
2023-05-19T00:56:53.568Z,958.0486
2023-05-19T00:57:55.649Z,958.0495
2023-05-19T00:58:58.434Z,958.0295
2023-05-19T01:00:00.603Z,958.0172
2023-05-19T01:01:02.722Z,958.0105
2023-05-19T01:02:04.785Z,958.0114
2023-05-19T01:04:08.907Z,957.9938
2023-05-19T01:05:11.033Z,957.9900
2023-05-19T01:06:13.136Z,957.9862
2023-05-19T01:07:15.211Z,957.9771
2023-05-19T01:08:17.304Z,957.9800
2023-05-19T01:09:19.390Z,957.9643
2023-05-19T01:10:22.069Z,957.9553
2023-05-19T01:11:24.913Z,957.9595
2023-05-19T01:12:26.953Z,957.9590
2023-05-19T01:13:29.642Z,957.9628
2023-05-19T01:14:31.699Z,957.9667
2023-05-19T01:15:34.488Z,957.9605
2023-05-19T01:16:36.617Z,957.9605
2023-05-19T01:17:39.403Z,957.9576
2023-05-19T01:18:42.107Z,957.9581
2023-05-19T01:19:44.277Z,957.9557
2023-05-19T01:20:46.345Z,957.9581
2023-05-19T01:21:48.416Z,957.9609
2023-05-19T01:22:50.485Z,957.9724
2023-05-19T01:23:53.634Z,957.9771
2023-05-19T01:24:52.840Z,957.9940
2023-05-19T01:25:56.252Z,958.0029
2023-05-19T01:28:00.124Z,958.0095
2023-05-19T01:29:02.897Z,958.0181
2023-05-19T01:30:04.954Z,958.0114
2023-05-19T01:31:07.032Z,958.0048
2023-05-19T01:33:11.720Z,958.0248
2023-05-19T01:34:14.610Z,958.0162
2023-05-19T01:35:16.734Z,958.0396
2023-05-19T01:36:18.817Z,958.0414
2023-05-19T01:37:21.137Z,958.0367
2023-05-19T01:38:23.186Z,958.0291
2023-05-19T01:39:25.283Z,958.0229
2023-05-19T01:41:29.969Z,958.0258
2023-05-19T01:42:32.107Z,958.0134
2023-05-19T01:43:34.216Z,958.0043
2023-05-19T01:44:36.305Z,958.0067
2023-05-19T01:45:38.912Z,958.0067
2023-05-19T01:46:41.023Z,958.0138
2023-05-19T01:47:43.136Z,958.0129
2023-05-19T01:48:45.185Z,958.0119
2023-05-19T01:49:48.408Z,958.0019
2023-05-19T01:50:49.012Z,957.9960
2023-05-19T01:52:50.715Z,958.0095
2023-05-19T01:53:53.675Z,958.0229
2023-05-19T01:54:56.446Z,958.0286
2023-05-19T01:55:58.548Z,958.0319
2023-05-19T01:57:01.234Z,958.0400
2023-05-19T01:58:03.390Z,958.0405
2023-05-19T01:59:05.501Z,958.0276
2023-05-19T02:00:07.549Z,958.0338
2023-05-19T02:01:10.433Z,958.0324
2023-05-19T02:02:13.156Z,958.0576
2023-05-19T02:03:15.952Z,958.0571
2023-05-19T02:04:18.089Z,958.0738
2023-05-19T02:05:20.116Z,958.0614
2023-05-19T02:06:22.917Z,958.0605
2023-05-19T02:07:25.636Z,958.0519
2023-05-19T02:08:27.730Z,958.0424
2023-05-19T02:09:29.795Z,958.0462
2023-05-19T02:10:33.177Z,958.0400
2023-05-19T02:11:33.539Z,958.0300
2023-05-19T02:12:34.565Z,958.0185
2023-05-19T02:13:36.650Z,958.0134
2023-05-19T02:14:39.422Z,958.0019
2023-05-19T02:15:48.614Z,957.9971
2023-05-19T02:22:52.630Z,957.9847
2023-05-19T02:25:55.627Z,957.9662
2023-05-19T02:26:57.694Z,957.9553
2023-05-19T02:27:59.799Z,957.9481
2023-05-19T02:29:01.807Z,957.9348
2023-05-19T02:30:03.876Z,957.9142
2023-05-19T02:31:07.212Z,957.8914
2023-05-19T02:42:24.863Z,957.7724
2023-05-19T02:44:29.587Z,957.7590
2023-05-19T02:45:32.482Z,957.7538
2023-05-19T02:46:34.585Z,957.7581
2023-05-19T02:47:37.314Z,957.7481
2023-05-19T02:48:40.135Z,957.7510
2023-05-19T02:49:43.892Z,957.7319
2023-05-19T02:50:43.732Z,957.7485
2023-05-19T02:51:45.980Z,957.7405
2023-05-19T02:52:48.701Z,957.7562
2023-05-19T02:53:51.499Z,957.7710
2023-05-19T02:54:54.274Z,957.7791
2023-05-19T02:55:57.029Z,957.7714
2023-05-19T02:56:59.068Z,957.7833
2023-05-19T02:58:01.181Z,957.7843
2023-05-19T02:59:03.241Z,957.7781
2023-05-19T03:00:06.044Z,957.7814
2023-05-19T03:01:06.245Z,957.7815
2023-05-19T03:02:08.493Z,957.7852
2023-05-19T03:04:13.294Z,957.7867
2023-05-19T03:05:16.038Z,957.7758
2023-05-19T03:06:18.942Z,957.7681
2023-05-19T03:09:26.019Z,957.7314
2023-05-19T03:10:28.097Z,957.7252
2023-05-19T03:11:31.159Z,957.7195
2023-05-19T03:14:34.674Z,957.6964
2023-05-19T03:16:39.676Z,957.7005
2023-05-19T03:19:43.378Z,957.6971
2023-05-19T03:20:45.471Z,957.6953
2023-05-19T03:21:48.435Z,957.6967
2023-05-19T03:22:48.458Z,957.6935
2023-05-19T03:25:52.912Z,957.6871
2023-05-19T03:30:02.426Z,957.6781
2023-05-19T03:31:02.970Z,957.6720
2023-05-19T03:32:05.066Z,957.6738
2023-05-19T03:39:18.904Z,957.6914
2023-05-19T03:40:21.573Z,957.7100
2023-05-19T03:41:23.645Z,957.7371
2023-05-19T03:42:26.335Z,957.7500
2023-05-19T03:43:29.037Z,957.7852
2023-05-19T03:44:31.891Z,957.8062
2023-05-19T03:45:34.687Z,957.8281
2023-05-19T03:46:37.393Z,957.8486
2023-05-19T03:48:42.159Z,957.8705
2023-05-19T03:49:44.919Z,957.8853
2023-05-19T03:50:47.658Z,957.8805
2023-05-19T03:51:49.746Z,957.8848
2023-05-19T03:52:57.571Z,957.8619
2023-05-19T03:53:54.433Z,957.8616
2023-05-19T03:54:57.064Z,957.8481
2023-05-19T03:55:59.192Z,957.8438
2023-05-19T03:58:03.324Z,957.8433
2023-05-19T03:59:05.465Z,957.8495
2023-05-19T04:01:10.756Z,957.8448
2023-05-19T04:02:12.904Z,957.8481
2023-05-19T04:03:15.185Z,957.8491
2023-05-19T04:05:19.616Z,957.8381
2023-05-19T04:06:21.740Z,957.8467
2023-05-19T04:07:23.857Z,957.8605
2023-05-19T04:08:25.972Z,957.8662
2023-05-19T04:09:28.090Z,957.8814
2023-05-19T04:10:31.115Z,957.8948
2023-05-19T04:18:44.900Z,957.8838
2023-05-19T04:19:47.708Z,957.8843
2023-05-19T04:20:49.877Z,957.9067
2023-05-19T04:21:51.995Z,957.9100
2023-05-19T04:22:54.610Z,957.9247
2023-05-19T04:23:56.698Z,957.9448
2023-05-19T04:24:59.532Z,957.9600
2023-05-19T04:26:02.505Z,957.9638
2023-05-19T04:34:17.067Z,957.9624
2023-05-19T04:35:19.213Z,957.9705
2023-05-19T04:36:21.379Z,957.9724
2023-05-19T04:37:24.059Z,958.0000
2023-05-19T04:38:26.819Z,958.0071
2023-05-19T04:39:28.991Z,958.0124
2023-05-19T04:40:31.384Z,958.0291
2023-05-19T04:41:33.744Z,958.0395
2023-05-19T04:42:38.960Z,958.0505
2023-05-19T04:43:38.816Z,958.0600
2023-05-19T04:44:41.613Z,958.0676
2023-05-19T04:45:44.347Z,958.0762
2023-05-19T04:46:47.387Z,958.0867
2023-05-19T04:48:49.822Z,958.1052
2023-05-19T04:52:56.492Z,958.1214
2023-05-19T04:53:59.261Z,958.1434
2023-05-19T04:55:02.062Z,958.1424
2023-05-19T04:56:04.179Z,958.1424
2023-05-19T04:58:08.920Z,958.1638
2023-05-19T05:02:15.333Z,958.1833
2023-05-19T05:03:18.274Z,958.1857
2023-05-19T05:07:26.398Z,958.2205
2023-05-19T05:14:39.627Z,958.1990
2023-05-19T05:15:39.700Z,958.1825
2023-05-19T05:16:41.868Z,958.1900
2023-05-19T05:17:44.594Z,958.1938
2023-05-19T05:18:46.796Z,958.1829
2023-05-19T05:19:48.936Z,958.1900
2023-05-19T05:20:51.096Z,958.1833
2023-05-19T05:21:53.190Z,958.1953
2023-05-19T05:22:55.276Z,958.2029
2023-05-19T05:23:57.653Z,958.1967
2023-05-19T05:24:59.787Z,958.1943
2023-05-19T05:26:01.878Z,958.1866
2023-05-19T05:27:04.656Z,958.1800
2023-05-19T05:28:07.771Z,958.1800
2023-05-19T05:43:39.354Z,958.1514
2023-05-19T05:44:42.135Z,958.1419
2023-05-19T05:45:44.956Z,958.1481
2023-05-19T05:46:47.068Z,958.1533
2023-05-19T05:47:49.196Z,958.1705
2023-05-19T05:48:51.688Z,958.1781
2023-05-19T05:49:54.422Z,958.1781
2023-05-19T05:50:57.144Z,958.1805
2023-05-19T05:53:02.678Z,958.1545
2023-05-19T05:54:04.771Z,958.1548
2023-05-19T05:55:06.902Z,958.1609
2023-05-19T05:56:09.663Z,958.1486
2023-05-19T05:57:11.817Z,958.1334
2023-05-19T05:58:14.652Z,958.1595
2023-05-19T05:59:16.754Z,958.1795
2023-05-19T06:00:18.825Z,958.1681
2023-05-19T06:01:21.572Z,958.1886
2023-05-19T06:02:23.850Z,958.2014
2023-05-19T06:03:26.097Z,958.1929
2023-05-19T06:05:30.230Z,958.1743
2023-05-19T06:06:32.978Z,958.1795
2023-05-19T06:07:35.110Z,958.2043
2023-05-19T06:08:37.238Z,958.1843
2023-05-19T06:10:00.984Z,958.2114
2023-05-19T06:17:55.487Z,958.1866
2023-05-19T06:18:58.393Z,958.1838
2023-05-19T06:26:11.941Z,958.1600
2023-05-19T06:27:14.683Z,958.1528
2023-05-19T06:28:17.656Z,958.1533
2023-05-19T06:30:19.944Z,958.1619
2023-05-19T06:31:22.921Z,958.1481
2023-05-19T06:33:25.507Z,958.1433
2023-05-19T06:34:25.903Z,958.1635
2023-05-19T06:35:28.025Z,958.1810
2023-05-19T06:37:32.653Z,958.2376
2023-05-19T06:38:35.440Z,958.2514
2023-05-19T06:39:38.130Z,958.2448
2023-05-19T06:40:40.242Z,958.2524
2023-05-19T06:41:43.103Z,958.2305
2023-05-19T06:42:45.209Z,958.2347
2023-05-19T06:43:47.322Z,958.2357
2023-05-19T06:44:50.953Z,958.2305
2023-05-19T06:45:51.316Z,958.2365
2023-05-19T06:48:55.437Z,958.2529
2023-05-19T06:49:58.562Z,958.2819
2023-05-19T06:51:59.781Z,958.3167
2023-05-19T06:53:01.977Z,958.3229
2023-05-19T06:54:04.172Z,958.3176
2023-05-19T06:55:06.514Z,958.3210
2023-05-19T06:56:14.475Z,958.3071
2023-05-19T06:57:33.209Z,958.3010
2023-05-19T07:04:23.645Z,958.3505
2023-05-19T07:05:26.503Z,958.3305
2023-05-19T07:06:28.608Z,958.3229
2023-05-19T07:07:30.689Z,958.3353
2023-05-19T07:08:32.983Z,958.3429
2023-05-19T07:09:36.217Z,958.3542
2023-05-19T07:10:39.186Z,958.3600
2023-05-19T07:11:39.643Z,958.3570
2023-05-19T07:12:41.739Z,958.3581
2023-05-19T07:13:44.167Z,958.3657
2023-05-19T07:14:46.909Z,958.3652
2023-05-19T07:15:49.613Z,958.4043
2023-05-19T07:16:51.910Z,958.4048
2023-05-19T07:17:54.383Z,958.4176
2023-05-19T07:18:55.133Z,958.4335
2023-05-19T07:19:58.131Z,958.4295
2023-05-19T07:27:11.776Z,958.3666
2023-05-19T07:28:12.200Z,958.3565
2023-05-19T07:31:17.629Z,958.3138
2023-05-19T07:32:19.915Z,958.3000
2023-05-19T07:33:21.971Z,958.2738
2023-05-19T07:34:24.330Z,958.2490
2023-05-19T07:35:26.433Z,958.2672
2023-05-19T07:36:29.144Z,958.2896
2023-05-19T07:37:31.905Z,958.3014
2023-05-19T07:38:34.718Z,958.3100
2023-05-19T07:41:41.422Z,958.3176
2023-05-19T07:42:44.557Z,958.3214
2023-05-19T07:44:46.465Z,958.3090
2023-05-19T07:45:48.584Z,958.3090
2023-05-19T07:46:51.026Z,958.3062
2023-05-19T07:47:53.169Z,958.3095
2023-05-19T07:48:56.492Z,958.3029
2023-05-19T07:49:59.212Z,958.2828
2023-05-19T07:51:01.897Z,958.2924
2023-05-19T07:52:04.940Z,958.3138
2023-05-19T07:54:06.742Z,958.3738
2023-05-19T07:55:09.474Z,958.3781
2023-05-19T07:56:11.590Z,958.3819
2023-05-19T07:57:14.298Z,958.3829
2023-05-19T07:58:16.421Z,958.3938
2023-05-19T07:59:19.139Z,958.4147
2023-05-19T08:00:21.240Z,958.4166
2023-05-19T08:01:24.080Z,958.4224
2023-05-19T08:03:28.185Z,958.4481
2023-05-19T08:06:34.286Z,958.3924
2023-05-19T08:07:36.374Z,958.3857
2023-05-19T08:08:39.152Z,958.3619
2023-05-19T08:09:41.831Z,958.3414
2023-05-19T08:10:43.914Z,958.3400
2023-05-19T08:11:45.955Z,958.3219
2023-05-19T08:14:53.055Z,958.3195
2023-05-19T08:15:55.881Z,958.3162
2023-05-19T08:16:58.562Z,958.3152
2023-05-19T08:18:01.359Z,958.3043
2023-05-19T08:19:03.448Z,958.2995
2023-05-19T08:20:06.105Z,958.2957
2023-05-19T08:21:08.752Z,958.2919
2023-05-19T08:22:10.800Z,958.2786
2023-05-19T08:23:12.871Z,958.2734
2023-05-19T08:24:15.558Z,958.2624
2023-05-19T08:25:18.212Z,958.2466
2023-05-19T08:46:04.072Z,958.0743
2023-05-19T08:47:06.277Z,958.0657
2023-05-19T08:48:08.504Z,958.0605
2023-05-19T08:49:10.562Z,958.0376
2023-05-19T08:50:12.707Z,958.0486
2023-05-19T08:51:14.828Z,958.0538
2023-05-19T08:52:16.933Z,958.0486
2023-05-19T08:53:32.539Z,958.0671
2023-05-19T08:59:30.810Z,958.0552
2023-05-19T09:00:33.179Z,958.0585
2023-05-19T09:21:12.728Z,958.0729
2023-05-19T09:22:14.902Z,958.0629
2023-05-19T09:23:17.045Z,958.0991
2023-05-19T09:24:19.070Z,958.0891
2023-05-19T09:25:21.205Z,958.0824
2023-05-19T09:26:23.328Z,958.0919
2023-05-19T09:27:25.455Z,958.1047
2023-05-19T09:28:27.630Z,958.1238
2023-05-19T09:29:29.711Z,958.0886
2023-05-19T09:30:31.804Z,958.0891
2023-05-19T09:31:33.926Z,958.0919
2023-05-19T09:32:36.060Z,958.0719
2023-05-19T09:33:38.168Z,958.0671
2023-05-19T09:34:40.246Z,958.0657
2023-05-19T09:35:42.358Z,958.0590
2023-05-19T09:36:44.588Z,958.0438
2023-05-19T09:37:46.689Z,958.0410
2023-05-19T09:38:48.936Z,958.0219
2023-05-19T09:39:51.082Z,958.0386
2023-05-19T09:40:53.151Z,958.0505
2023-05-19T09:41:55.249Z,958.0652
2023-05-19T09:42:57.404Z,958.1067
2023-05-19T09:43:59.610Z,958.1086
2023-05-19T09:45:01.679Z,958.1019
2023-05-19T09:46:03.933Z,958.0981
2023-05-19T09:47:06.084Z,958.0819
2023-05-19T09:48:08.263Z,958.0872
2023-05-19T09:49:10.328Z,958.0895
2023-05-19T09:50:12.444Z,958.1047
2023-05-19T09:51:14.495Z,958.0858
2023-05-19T09:52:16.537Z,958.1062
2023-05-19T09:53:18.636Z,958.1081
2023-05-19T09:54:20.712Z,958.0834
2023-05-19T09:55:22.772Z,958.0743
2023-05-19T09:56:24.857Z,958.0819
2023-05-19T09:57:26.905Z,958.0757
2023-05-19T09:58:28.967Z,958.0900
2023-05-19T09:59:33.351Z,958.0909
2023-05-19T10:00:33.349Z,958.0985
2023-05-19T10:01:35.659Z,958.1095
2023-05-19T10:02:37.781Z,958.1014
2023-05-19T10:03:39.900Z,958.0962
2023-05-19T10:04:42.008Z,958.0862
2023-05-19T10:05:44.064Z,958.0671
2023-05-19T10:06:46.129Z,958.0762
2023-05-19T10:07:48.256Z,958.0634
2023-05-19T10:08:50.399Z,958.0776
2023-05-19T10:09:52.478Z,958.0590
2023-05-19T10:10:54.602Z,958.0476
2023-05-19T10:11:56.709Z,958.0305
2023-05-19T10:12:58.896Z,958.0200
2023-05-19T10:14:00.937Z,958.0324
2023-05-19T10:15:03.029Z,958.0200
2023-05-19T10:16:05.156Z,958.0262
2023-05-19T10:17:07.359Z,958.0319
2023-05-19T10:18:09.716Z,958.0386
2023-05-19T10:19:11.859Z,958.0229
2023-05-19T10:20:13.938Z,958.0352
2023-05-19T10:21:16.028Z,958.0238
2023-05-19T10:22:18.120Z,958.0262
2023-05-19T10:23:20.289Z,958.0234
2023-05-19T10:24:23.162Z,958.0410
2023-05-19T10:25:25.491Z,958.0419
2023-05-19T10:26:27.601Z,958.0219
2023-05-19T10:27:29.683Z,958.0272
2023-05-19T10:28:31.784Z,958.0153
2023-05-19T10:29:33.912Z,958.0010
2023-05-19T10:30:35.967Z,957.9895
2023-05-19T10:31:38.089Z,957.9857
2023-05-19T10:32:40.313Z,957.9948
2023-05-19T10:33:42.405Z,957.9643
2023-05-19T10:34:44.561Z,957.9453
2023-05-19T10:35:47.255Z,957.9590
2023-05-19T10:36:46.792Z,957.9430
2023-05-19T10:37:48.907Z,957.9405
2023-05-19T10:38:50.928Z,957.9191
2023-05-19T10:39:53.029Z,957.9262
2023-05-19T10:40:55.113Z,957.9262
2023-05-19T10:41:57.203Z,957.9171
2023-05-19T10:42:59.257Z,957.9095
2023-05-19T10:44:01.625Z,957.9100
2023-05-19T10:45:03.744Z,957.9128
2023-05-19T10:46:05.829Z,957.9028
2023-05-19T10:47:07.960Z,957.9190
2023-05-19T10:48:10.140Z,957.9053
2023-05-19T10:49:12.214Z,957.9014
2023-05-19T10:50:14.471Z,957.8829
2023-05-19T10:51:16.759Z,957.9014
2023-05-19T10:52:18.891Z,957.8838
2023-05-19T10:53:20.991Z,957.8948
2023-05-19T10:54:23.174Z,957.9043
2023-05-19T10:55:25.317Z,957.8900
2023-05-19T10:56:28.196Z,957.8905
2023-05-19T10:58:29.358Z,957.8995
2023-05-19T10:59:31.441Z,957.9091
2023-05-19T11:00:33.593Z,957.9238
2023-05-19T11:09:51.212Z,957.9276
2023-05-19T11:10:53.298Z,957.9091
2023-05-19T11:11:55.365Z,957.8886
2023-05-19T11:14:00.075Z,957.8976
2023-05-19T11:15:02.158Z,957.8857
2023-05-19T11:16:04.226Z,957.8924
2023-05-19T11:17:06.429Z,957.8705
2023-05-19T11:18:08.509Z,957.8919
2023-05-19T11:19:10.728Z,957.8547
2023-05-19T11:20:13.014Z,957.8576
2023-05-19T11:21:15.111Z,957.8605
2023-05-19T11:22:17.476Z,957.8090
2023-05-19T11:23:19.661Z,957.7767
2023-05-19T11:24:21.786Z,957.7653
2023-05-19T11:25:23.953Z,957.7681
2023-05-19T11:26:26.061Z,957.7743
2023-05-19T11:27:28.306Z,957.7719
2023-05-19T11:28:30.321Z,957.7881
2023-05-19T11:29:32.867Z,957.7743
2023-05-19T11:30:33.509Z,957.7850
2023-05-19T11:31:35.657Z,957.7833
2023-05-19T11:32:37.797Z,957.7910
2023-05-19T11:33:39.858Z,957.7809
2023-05-19T11:34:41.904Z,957.7872
2023-05-19T11:35:43.960Z,957.7791
2023-05-19T11:36:46.117Z,957.7838
2023-05-19T11:37:48.173Z,957.7657
2023-05-19T11:38:50.234Z,957.7462
2023-05-19T11:39:52.338Z,957.7386
2023-05-19T11:40:54.378Z,957.7205
2023-05-19T11:41:56.457Z,957.7081
2023-05-19T11:42:58.506Z,957.6900
2023-05-19T11:44:00.571Z,957.7086
2023-05-19T11:45:02.591Z,957.7191
2023-05-19T11:46:04.679Z,957.6424
2023-05-19T11:47:06.728Z,957.6562
2023-05-19T11:48:08.906Z,957.6300
2023-05-19T11:49:10.948Z,957.6081
2023-05-19T11:50:13.122Z,957.6214
2023-05-19T11:51:15.153Z,957.6353
2023-05-19T11:52:17.252Z,957.6181
2023-05-19T11:53:19.324Z,957.6252
2023-05-19T11:54:21.392Z,957.6205
2023-05-19T11:55:23.519Z,957.6200
2023-05-19T11:56:25.665Z,957.6229
2023-05-19T11:57:27.725Z,957.6310
2023-05-19T11:59:33.492Z,957.6024
2023-05-19T12:00:34.712Z,957.6185
2023-05-19T12:01:36.794Z,957.6181
2023-05-19T12:02:38.968Z,957.6362
2023-05-19T12:03:41.176Z,957.6514
2023-05-19T12:04:43.322Z,957.6390
2023-05-19T12:05:45.886Z,957.6186
2023-05-19T12:06:45.629Z,957.6265
2023-05-19T12:07:47.644Z,957.6548
2023-05-19T12:08:49.663Z,957.6733
2023-05-19T12:09:51.701Z,957.6271
2023-05-19T12:10:53.669Z,957.6338
2023-05-19T12:11:55.706Z,957.6324
2023-05-19T12:12:57.682Z,957.6115
2023-05-19T12:13:59.690Z,957.5929
2023-05-19T12:15:01.656Z,957.6100
2023-05-19T12:16:03.753Z,957.6195
2023-05-19T12:17:05.792Z,957.5976
2023-05-19T12:18:07.886Z,957.6219
2023-05-19T12:19:09.996Z,957.6052
2023-05-19T12:20:12.121Z,957.5995
2023-05-19T12:21:14.497Z,957.6176
2023-05-19T12:22:16.660Z,957.6353
2023-05-19T12:23:18.654Z,957.6457
2023-05-19T12:24:20.702Z,957.6453
2023-05-19T12:25:22.714Z,957.6343
2023-05-19T12:26:24.749Z,957.6314
2023-05-19T12:27:26.817Z,957.6443
2023-05-19T12:28:28.888Z,957.6195
2023-05-19T12:29:30.929Z,957.5790
2023-05-19T12:30:33.934Z,957.5914
2023-05-19T12:31:34.015Z,957.5550
2023-05-19T12:32:36.174Z,957.5372
2023-05-19T12:33:38.208Z,957.5300
2023-05-19T12:34:40.277Z,957.5181
2023-05-19T12:35:42.350Z,957.5100
2023-05-19T12:36:44.376Z,957.5019
2023-05-19T12:37:46.473Z,957.4943
2023-05-19T12:38:48.534Z,957.4733
2023-05-19T12:39:50.865Z,957.4548
2023-05-19T12:40:52.912Z,957.4638
2023-05-19T12:41:54.911Z,957.4524
2023-05-19T12:42:56.909Z,957.4357
2023-05-19T12:43:58.902Z,957.4224
2023-05-19T12:45:02.297Z,957.4143
2023-05-19T12:46:02.318Z,957.3890
2023-05-19T12:50:10.102Z,957.3829
2023-05-19T12:51:12.348Z,957.3714
2023-05-19T12:52:14.354Z,957.3424
2023-05-19T12:53:16.438Z,957.3181
2023-05-19T12:54:18.403Z,957.3162
2023-05-19T12:55:20.845Z,957.3105
2023-05-19T12:56:22.898Z,957.2981
2023-05-19T12:57:24.993Z,957.2809
2023-05-19T12:58:27.379Z,957.2847
2023-05-19T12:59:38.351Z,957.2667
2023-05-19T13:00:31.796Z,957.2668
2023-05-19T13:01:34.250Z,957.2524
2023-05-19T13:02:36.492Z,957.2305
2023-05-19T13:03:38.760Z,957.2362
2023-05-19T13:04:40.848Z,957.2286
2023-05-19T13:05:42.885Z,957.2281
2023-05-19T13:06:44.987Z,957.2081
2023-05-19T13:07:46.996Z,957.1976
2023-05-19T13:08:49.044Z,957.1805
2023-05-19T13:09:51.097Z,957.1633
2023-05-19T13:10:53.138Z,957.1681
2023-05-19T13:11:55.334Z,957.1619
2023-05-19T13:12:57.372Z,957.1652
2023-05-19T13:13:59.524Z,957.1866
2023-05-19T13:15:01.550Z,957.1738
2023-05-19T13:16:03.650Z,957.1624
2023-05-19T13:17:05.679Z,957.1429
2023-05-19T13:18:07.791Z,957.1681
2023-05-19T13:19:23.877Z,957.1747
2023-05-19T13:20:11.923Z,957.1832
2023-05-19T13:21:14.217Z,957.1666
2023-05-19T13:22:16.254Z,957.1595
2023-05-19T13:23:18.341Z,957.1805
2023-05-19T13:24:20.376Z,957.1657
2023-05-19T13:25:22.524Z,957.1509
2023-05-19T13:26:24.712Z,957.1386
2023-05-19T13:27:26.759Z,957.1385
2023-05-19T13:28:28.917Z,957.1028
2023-05-19T13:29:31.000Z,957.1033
2023-05-19T13:30:33.342Z,957.1005
2023-05-19T13:31:35.989Z,957.0795
2023-05-19T13:32:38.186Z,957.0533
2023-05-19T13:33:40.242Z,956.9995
2023-05-19T13:34:42.459Z,957.0205
2023-05-19T13:35:44.545Z,957.0133
2023-05-19T13:36:46.943Z,957.0095
2023-05-19T13:37:49.089Z,956.9910
2023-05-19T13:38:51.152Z,957.0000
2023-05-19T13:39:53.321Z,957.0148
2023-05-19T13:40:55.381Z,957.0086
2023-05-19T13:41:57.452Z,957.0067
2023-05-19T13:42:59.544Z,957.0095
2023-05-19T13:44:01.631Z,957.0452
2023-05-19T13:45:03.764Z,957.0376
2023-05-19T13:46:05.923Z,957.0186
2023-05-19T13:47:08.105Z,957.0071
2023-05-19T13:48:10.344Z,957.0076
2023-05-19T13:49:12.466Z,957.0048
2023-05-19T13:50:14.520Z,956.9976
2023-05-19T13:51:16.696Z,957.0071
2023-05-19T13:52:18.759Z,957.0076
2023-05-19T13:53:20.915Z,956.9981
2023-05-19T13:54:22.998Z,956.9938
2023-05-19T13:55:25.088Z,956.9852
2023-05-19T13:56:27.253Z,956.9705
2023-05-19T13:57:29.352Z,956.9652
2023-05-19T13:58:31.421Z,956.9766
2023-05-19T13:59:33.519Z,956.9814
2023-05-19T14:00:35.799Z,956.9995
2023-05-19T14:01:40.429Z,957.0067
2023-05-19T14:02:40.946Z,957.0221
2023-05-19T14:03:43.240Z,957.0447
2023-05-19T14:04:45.530Z,957.0466
2023-05-19T14:05:47.661Z,957.0481
2023-05-19T14:06:49.958Z,957.0457
2023-05-19T14:07:52.139Z,957.0595
2023-05-19T14:08:54.262Z,957.0605
2023-05-19T14:09:56.418Z,957.0424
2023-05-19T14:10:58.642Z,957.0486
2023-05-19T14:12:00.855Z,957.0495
2023-05-19T14:20:17.513Z,957.0052
2023-05-19T14:21:19.692Z,957.0253
2023-05-19T14:22:21.895Z,957.0200
2023-05-19T14:23:24.144Z,957.0262
2023-05-19T14:24:26.340Z,957.0272
2023-05-19T14:25:28.567Z,957.0090
2023-05-19T14:26:30.767Z,957.0148
2023-05-19T14:27:33.187Z,957.0024
2023-05-19T14:28:35.523Z,957.0029
2023-05-19T14:29:38.052Z,956.9986
2023-05-19T14:30:40.513Z,956.9952
2023-05-19T14:31:42.728Z,956.9952
2023-05-19T14:32:44.973Z,957.0038
2023-05-19T14:33:47.115Z,957.0267
2023-05-19T14:34:49.306Z,957.0219
2023-05-19T14:35:51.522Z,957.0167
2023-05-19T14:36:53.846Z,956.9929
2023-05-19T14:37:56.106Z,956.9676
2023-05-19T14:38:58.364Z,956.9628
2023-05-19T14:40:00.608Z,956.9724
2023-05-19T14:41:02.924Z,956.9705
2023-05-19T14:42:05.379Z,956.9728
2023-05-19T14:43:07.665Z,956.9609
2023-05-19T14:44:09.999Z,956.9586
2023-05-19T14:46:14.329Z,956.9724
2023-05-19T14:47:16.620Z,956.9776
2023-05-19T14:48:18.862Z,956.9667
2023-05-19T14:49:21.284Z,956.9557
2023-05-19T14:50:23.509Z,956.9500
2023-05-19T14:51:25.778Z,956.9462
2023-05-19T14:52:28.023Z,956.9366
2023-05-19T14:53:30.367Z,956.9390
2023-05-19T14:54:32.568Z,956.9614
2023-05-19T14:55:34.877Z,956.9810
2023-05-19T14:56:37.043Z,956.9933
2023-05-19T14:57:39.338Z,956.9924
2023-05-19T14:58:41.495Z,957.0034
2023-05-19T14:59:43.672Z,957.0000
2023-05-19T15:00:45.907Z,957.0114
2023-05-19T15:01:48.180Z,957.0114
2023-05-19T15:02:50.513Z,957.0148
2023-05-19T15:03:52.821Z,957.0167
2023-05-19T15:04:55.117Z,957.0024
2023-05-19T15:05:57.319Z,956.9890
2023-05-19T15:08:02.271Z,956.9852
2023-05-19T15:09:02.852Z,956.9670
2023-05-19T15:10:05.047Z,956.9562
2023-05-19T15:11:07.247Z,956.9343
2023-05-19T15:12:09.452Z,956.9314
2023-05-19T15:13:11.652Z,956.9081
2023-05-19T15:14:11.865Z,956.9070
2023-05-19T15:15:14.070Z,956.8981
2023-05-19T15:16:17.996Z,956.8953
2023-05-19T15:17:18.625Z,956.9063
2023-05-19T15:18:20.868Z,956.8905
2023-05-19T15:19:23.213Z,956.8962
2023-05-19T15:20:26.964Z,956.8967
2023-05-19T15:21:27.746Z,956.8845
2023-05-19T15:22:30.021Z,956.8714
2023-05-19T15:23:32.350Z,956.8838
2023-05-19T15:24:52.871Z,956.8810
2023-05-19T15:30:43.850Z,956.9752
2023-05-19T15:31:46.661Z,956.9886
2023-05-19T15:32:49.540Z,956.9871
2023-05-19T15:33:52.315Z,956.9795
2023-05-19T15:34:54.474Z,956.9929
2023-05-19T15:35:56.650Z,956.9819
2023-05-19T15:36:59.483Z,956.9990
2023-05-19T15:45:13.129Z,956.9676
2023-05-19T15:50:25.135Z,956.9434
2023-05-19T15:51:28.123Z,956.9557
2023-05-19T15:52:28.324Z,956.9490
2023-05-19T15:53:30.534Z,956.9405
2023-05-19T15:55:36.160Z,956.9276
2023-05-19T15:57:37.719Z,956.9186
2023-05-19T15:58:39.920Z,956.9076
2023-05-19T15:59:42.118Z,956.8972
2023-05-19T16:08:03.255Z,956.8424
2023-05-19T16:09:03.351Z,956.8575
2023-05-19T16:11:06.068Z,956.8157
2023-05-19T16:12:08.837Z,956.8062
2023-05-19T16:13:11.025Z,956.7943
2023-05-19T16:14:13.843Z,956.7919
2023-05-19T16:15:16.220Z,956.7581
2023-05-19T16:16:21.067Z,956.7452
2023-05-19T16:33:55.901Z,956.7462
2023-05-19T16:35:57.406Z,956.7333
2023-05-19T16:37:00.350Z,956.6890
2023-05-19T16:38:03.272Z,956.6886
2023-05-19T16:39:06.179Z,956.7100
2023-05-19T16:40:08.400Z,956.6938
2023-05-19T16:41:11.254Z,956.6890
2023-05-19T16:42:10.599Z,956.6930
2023-05-19T16:43:13.753Z,956.6910
2023-05-19T16:44:15.143Z,956.6980
2023-05-19T16:47:19.862Z,956.6919
2023-05-19T16:48:20.009Z,956.6880
2023-05-19T16:49:22.167Z,956.6719
2023-05-19T16:50:25.029Z,956.6752
2023-05-19T16:55:29.958Z,956.6576
2023-05-19T16:56:32.703Z,956.6338
2023-05-19T16:57:35.452Z,956.6348
2023-05-19T16:58:38.258Z,956.6147
2023-05-19T16:59:41.277Z,956.6086